Time;durP1;ratioP1;P1;durP2;ratioP2;P2;SDS_P1;SDS_P2;PMS_P1;PMS_P2;Temp;Humidity;BMP_temperature;BMP_pressure;BME280_temperature;BME280_humidity;BME280_pressure;Samples;Min_cycle;Max_cycle;Signal;HPM_P1;HPM_P2
2022/05/03 00:00:15;;;;;;;22.40;17.55;;;;;;;21.06;45.91;102128.72;5094775;28;20494;-77
2022/05/03 00:02:47;;;;;;;21.33;17.17;;;;;;;21.11;45.93;102121.31;5094729;28;20035;-80
2022/05/03 00:05:31;;;;;;;21.83;17.38;;;;;;;21.10;46.07;102125.25;5094737;28;20032;-79
2022/05/03 00:08:04;;;;;;;20.45;15.40;;;;;;;21.05;45.98;102124.31;5094651;28;20021;-76
2022/05/03 00:11:09;;;;;;;19.05;15.73;;;;;;;21.08;45.80;102124.75;5094715;28;20031;-77
2022/05/03 00:14:03;;;;;;;25.33;17.58;;;;;;;21.03;45.79;102123.06;5012216;28;20034;-77
2022/05/03 00:16:30;;;;;;;23.50;17.50;;;;;;;21.09;45.75;102118.06;5012230;28;20033;-75
2022/05/03 00:18:56;;;;;;;22.17;16.25;;;;;;;21.13;45.66;102118.97;5067315;28;20076;-77
2022/05/03 00:21:22;;;;;;;23.23;17.88;;;;;;;21.16;45.49;102121.03;5094341;28;20020;-78
2022/05/03 00:23:48;;;;;;;23.33;17.67;;;;;;;21.12;45.64;102122.91;5093570;28;20059;-76
2022/05/03 00:26:14;;;;;;;25.75;18.77;;;;;;;21.10;45.74;102114.94;5094174;28;20381;-76
2022/05/03 00:28:42;;;;;;;28.80;20.13;;;;;;;21.08;45.70;102111.66;5094250;28;20028;-76
2022/05/03 00:31:10;;;;;;;28.75;21.30;;;;;;;21.11;45.76;102104.63;5093920;28;20052;-76
2022/05/03 00:33:36;;;;;;;28.67;20.98;;;;;;;21.14;45.86;102103.91;5094078;28;20032;-79
2022/05/03 00:36:02;;;;;;;26.48;19.75;;;;;;;21.13;45.72;102105.06;5093780;28;20432;-78
2022/05/03 00:38:34;;;;;;;24.10;19.38;;;;;;;21.15;45.62;102105.53;5094104;28;20103;-75
2022/05/03 00:41:04;;;;;;;21.00;15.05;;;;;;;21.13;45.74;102107.84;5092775;28;20123;-76
2022/05/03 00:43:58;;;;;;;27.98;18.60;;;;;;;21.06;45.87;102114.00;5093992;28;20032;-76
2022/05/03 00:46:28;;;;;;;26.40;17.55;;;;;;;21.10;45.81;102109.38;5093873;28;20039;-77
2022/05/03 00:49:51;;;;;;;23.58;15.52;;;;;;;21.02;45.80;102107.53;5093860;28;20024;-77
2022/05/03 00:52:38;;;;;;;24.17;19.92;;;;;;;21.04;45.81;102100.47;5011175;28;20157;-76
2022/05/03 00:55:36;;;;;;;27.17;17.83;;;;;;;21.05;45.88;102104.84;5011493;28;20022;-76
2022/05/03 00:58:13;;;;;;;27.95;20.63;;;;;;;21.05;45.88;102104.06;5079639;28;20063;-77
2022/05/03 01:00:48;;;;;;;24.65;17.88;;;;;;;21.05;45.77;102102.09;5092737;28;20027;-76
2022/05/03 01:03:23;;;;;;;23.40;17.65;;;;;;;20.98;46.06;102099.09;5093347;28;20027;-76
2022/05/03 01:06:00;;;;;;;24.90;18.17;;;;;;;21.02;45.93;102102.00;5093512;28;20034;-79
2022/05/03 01:08:31;;;;;;;24.00;17.50;;;;;;;20.99;45.94;102089.59;5093372;28;20031;-77
2022/05/03 01:11:25;;;;;;;23.83;17.65;;;;;;;20.93;46.07;102093.78;5093294;28;20077;-77
2022/05/03 01:14:00;;;;;;;25.42;19.23;;;;;;;20.94;46.05;102092.63;5093255;28;20076;-77
2022/05/03 01:16:33;;;;;;;23.80;18.05;;;;;;;20.98;46.29;102099.09;5093322;28;20100;-79
2022/05/03 01:19:38;;;;;;;20.88;16.42;;;;;;;21.05;45.80;102090.97;5093275;28;20463;-77
2022/05/03 01:22:14;;;;;;;25.05;18.13;;;;;;;21.10;45.73;102086.34;5092881;28;20051;-77
2022/05/03 01:25:10;;;;;;;22.98;16.27;;;;;;;21.09;45.79;102090.28;5093154;28;20031;-77
2022/05/03 01:27:45;;;;;;;23.40;16.80;;;;;;;21.11;45.80;102087.94;5082268;28;20116;-77
2022/05/03 01:30:13;;;;;;;25.70;16.90;;;;;;;21.10;45.68;102086.34;5093219;28;20028;-77
2022/05/03 01:32:45;;;;;;;21.70;16.60;;;;;;;21.11;45.64;102088.75;5093024;28;20395;-76
2022/05/03 01:35:14;;;;;;;24.00;18.25;;;;;;;21.12;45.64;102086.78;5093140;28;20028;-77
2022/05/03 01:38:03;;;;;;;31.33;20.02;;;;;;;21.13;45.66;102085.63;5092762;28;20036;-76
2022/05/03 01:41:12;;;;;;;23.52;17.95;;;;;;;21.08;45.69;102086.66;5092957;28;20031;-76
2022/05/03 01:43:47;;;;;;;23.70;17.87;;;;;;;21.08;45.69;102091.41;5089938;28;20043;-78
2022/05/03 01:46:21;;;;;;;29.83;18.55;;;;;;;21.07;45.69;102087.81;5093012;28;20028;-79
2022/05/03 01:52:37;;;;;;;23.10;18.23;;;;;;;21.08;45.89;102083.88;5092792;28;20097;-77
2022/05/03 01:55:08;;;;;;;;;;;;;;;21.19;45.46;102079.47;5011150;28;20038;-77
2022/05/03 01:57:54;;;;;;;30.27;20.05;;;;;;;21.09;45.82;102087.50;5078556;28;19912;-77
2022/05/03 02:00:21;;;;;;;24.63;18.67;;;;;;;21.00;46.07;102084.84;5092373;28;20032;-79
2022/05/03 02:02:56;;;;;;;23.50;18.30;;;;;;;21.11;45.66;102079.63;5087902;28;20542;-75
2022/05/03 02:05:58;;;;;;;25.08;18.42;;;;;;;21.22;45.58;102077.94;5092719;28;20374;-76
2022/05/03 02:08:30;;;;;;;27.27;20.38;;;;;;;21.31;44.94;102076.69;5092742;28;20024;-76
2022/05/03 02:11:09;;;;;;;26.85;19.58;;;;;;;21.23;45.39;102068.44;5092650;28;20024;-76
2022/05/03 02:16:30;;;;;;;25.15;17.58;;;;;;;21.33;45.19;102067.97;5096818;28;20039;-76
2022/05/03 02:19:04;;;;;;;24.52;18.35;;;;;;;21.56;44.44;102076.56;5096551;28;20028;-79
2022/05/03 02:21:41;;;;;;;24.67;19.92;;;;;;;21.29;45.07;102076.19;5096713;28;20024;-77
2022/05/03 02:24:40;;;;;;;26.83;20.67;;;;;;;21.13;45.57;102071.72;5096539;28;20122;-79
2022/05/03 02:27:10;;;;;;;24.77;18.63;;;;;;;21.10;45.74;102072.44;5096680;28;20024;-79
2022/05/03 02:29:47;;;;;;;23.63;18.00;;;;;;;21.10;45.86;102069.66;5096559;28;20055;-77
2022/05/03 02:32:27;;;;;;;25.25;19.60;;;;;;;21.06;46.07;102066.75;5096353;28;20537;-76
2022/05/03 02:35:03;;;;;;;32.03;21.08;;;;;;;21.05;45.87;102068.72;5095169;28;20032;-77
2022/05/03 02:37:38;;;;;;;24.00;18.42;;;;;;;21.09;45.74;102074.41;5094973;28;20063;-77
2022/05/03 02:40:13;;;;;;;27.73;20.33;;;;;;;21.04;45.98;102072.69;5094824;28;20394;-75
2022/05/03 02:42:39;;;;;;;25.58;19.40;;;;;;;21.12;45.77;102065.34;5094658;28;20082;-77
2022/05/03 02:45:06;;;;;;;25.58;19.92;;;;;;;21.12;45.70;102072.88;5094865;28;20028;-79
2022/05/03 02:47:50;;;;;;;25.58;18.80;;;;;;;20.97;46.23;102066.09;5094821;28;20025;-81
2022/05/03 02:50:30;;;;;;;26.63;19.25;;;;;;;21.06;45.87;102064.78;5096098;28;20020;-77
2022/05/03 02:52:56;;;;;;;26.90;18.65;;;;;;;21.08;45.93;102066.41;5055884;28;20033;-76
2022/05/03 02:55:50;;;;;;;27.65;19.63;;;;;;;21.05;46.01;102062.38;5055600;28;20566;-76
2022/05/03 02:58:34;;;;;;;30.02;20.20;;;;;;;20.96;46.25;102070.84;5055589;28;20028;-76
2022/05/03 03:01:49;;;;;;;27.15;18.55;;;;;;;21.03;45.99;102065.50;5055652;28;20025;-78
2022/05/03 03:04:42;;;;;;;24.42;18.88;;;;;;;21.05;46.02;102068.72;4993915;28;20497;-76
2022/05/03 03:07:18;;;;;;;23.80;17.65;;;;;;;21.06;45.88;102070.34;4993941;28;20034;-77
2022/05/03 03:09:48;;;;;;;21.02;16.95;;;;;;;21.06;45.75;102064.78;5043190;28;20051;-77
2022/05/03 03:12:38;;;;;;;22.90;16.58;;;;;;;21.10;45.82;102062.13;5089838;28;20034;-77
2022/05/03 03:15:07;;;;;;;25.75;18.17;;;;;;;21.19;45.59;102057.22;5094438;28;20032;-77
2022/05/03 03:17:48;;;;;;;43.55;28.77;;;;;;;21.16;45.63;102054.31;5095606;28;20511;-77
2022/05/03 03:20:15;;;;;;;47.03;30.70;;;;;;;20.98;46.02;102053.81;5095601;28;20043;-77
2022/05/03 03:22:43;;;;;;;52.42;32.92;;;;;;;20.92;46.15;102050.47;5095388;28;20028;-80
2022/05/03 03:25:14;;;;;;;56.70;35.22;;;;;;;20.90;46.34;102054.78;5092939;28;20032;-80
2022/05/03 03:27:42;;;;;;;59.45;36.60;;;;;;;20.90;46.36;102058.34;5094141;28;20380;-77
2022/05/03 03:30:10;;;;;;;49.83;32.38;;;;;;;20.88;46.41;102057.09;5095426;28;20028;-77
2022/05/03 03:32:38;;;;;;;49.90;30.33;;;;;;;20.85;46.55;102058.59;5095258;28;20382;-77
2022/05/03 03:35:04;;;;;;;48.40;28.75;;;;;;;20.88;46.37;102052.34;5095299;28;20028;-77
2022/05/03 03:37:33;;;;;;;43.50;27.95;;;;;;;20.89;46.50;102058.72;5095034;28;20036;-76
2022/05/03 03:40:00;;;;;;;46.53;29.03;;;;;;;20.88;46.34;102059.88;5095292;28;20024;-77
2022/05/03 03:42:28;;;;;;;47.00;29.27;;;;;;;20.89;46.32;102051.19;5095084;28;20276;-76
2022/05/03 03:44:59;;;;;;;43.67;27.77;;;;;;;20.88;46.40;102054.31;5095035;28;20020;-77
2022/05/03 03:47:25;;;;;;;44.53;29.23;;;;;;;20.90;46.43;102050.03;5095180;28;20028;-77
2022/05/03 03:49:51;;;;;;;41.63;28.33;;;;;;;20.86;46.63;102059.44;5095020;28;20024;-75
2022/05/03 03:52:17;;;;;;;38.97;25.48;;;;;;;21.04;46.09;102060.75;5094675;28;20113;-75
2022/05/03 03:54:44;;;;;;;42.88;26.48;;;;;;;21.06;46.10;102056.44;5093641;28;20028;-76
2022/05/03 03:57:11;;;;;;;40.80;26.15;;;;;;;21.05;46.10;102052.06;5094900;28;20016;-77
2022/05/03 03:59:37;;;;;;;39.38;26.73;;;;;;;21.09;45.99;102056.94;5094865;28;20097;-76
2022/05/03 04:02:04;;;;;;;42.40;26.77;;;;;;;21.06;46.13;102053.69;5094692;28;20023;-79
2022/05/03 04:04:31;;;;;;;43.38;28.58;;;;;;;21.06;45.91;102055.66;5094774;28;20474;-80
2022/05/03 04:06:59;;;;;;;41.00;25.25;;;;;;;21.05;45.97;102052.06;5094426;28;20031;-76
2022/05/03 04:09:25;;;;;;;45.38;28.17;;;;;;;21.02;45.97;102047.22;5094668;28;20027;-75
2022/05/03 04:11:51;;;;;;;43.70;28.75;;;;;;;21.09;45.95;102051.38;5094596;28;20513;-76
2022/05/03 04:14:16;;;;;;;48.33;31.15;;;;;;;21.02;46.11;102044.44;5094374;28;20032;-77
2022/05/03 04:16:42;;;;;;;38.08;27.05;;;;;;;20.97;46.15;102041.91;5094386;28;20024;-75
2022/05/03 04:19:08;;;;;;;40.38;28.48;;;;;;;21.00;46.19;102045.94;5093114;28;20028;-75
2022/05/03 04:21:34;;;;;;;35.25;23.40;;;;;;;21.01;46.03;102047.59;5094100;28;20028;-77
2022/05/03 04:24:00;;;;;;;33.75;23.70;;;;;;;21.03;45.80;102048.84;5094338;28;20028;-77
2022/05/03 04:26:27;;;;;;;39.28;26.75;;;;;;;20.94;46.13;102044.59;5092869;28;20024;-77
2022/05/03 04:29:00;;;;;;;37.70;27.73;;;;;;;20.96;46.02;102048.63;5094192;28;20043;-77
2022/05/03 04:31:30;;;;;;;74.35;53.67;;;;;;;20.99;46.01;102047.09;5094184;28;20378;-75
2022/05/03 04:33:57;;;;;;;51.13;34.95;;;;;;;20.94;45.97;102045.41;5094129;28;20035;-77
2022/05/03 04:36:25;;;;;;;57.92;41.95;;;;;;;20.93;46.21;102042.94;5093650;28;20519;-77
2022/05/03 04:38:51;;;;;;;48.63;35.75;;;;;;;20.90;46.12;102044.47;5094065;28;20020;-77
2022/05/03 04:41:17;;;;;;;41.60;30.80;;;;;;;20.91;46.17;102043.31;5094003;28;20024;-77
2022/05/03 04:43:42;;;;;;;49.63;33.75;;;;;;;20.95;46.02;102049.78;5093922;28;20390;-81
2022/05/03 04:46:09;;;;;;;41.38;29.08;;;;;;;20.86;46.27;102048.31;5093879;28;20032;-77
2022/05/03 04:48:34;;;;;;;41.72;27.83;;;;;;;20.85;46.25;102047.47;5093881;28;20039;-80
2022/05/03 04:51:00;;;;;;;37.30;27.00;;;;;;;20.86;46.22;102054.69;5093645;28;20032;-76
2022/05/03 04:53:27;;;;;;;42.78;28.63;;;;;;;20.87;46.07;102050.75;5093693;28;20036;-78
2022/05/03 04:55:52;;;;;;;40.85;28.23;;;;;;;20.72;46.59;102052.28;5093685;28;20031;-76
2022/05/03 04:58:18;;;;;;;35.70;25.20;;;;;;;20.68;46.89;102048.56;5093708;28;20026;-79
2022/05/03 05:00:45;;;;;;;32.90;23.30;;;;;;;20.68;46.44;102053.31;5093424;28;20032;-75
2022/05/03 05:03:10;;;;;;;33.38;24.02;;;;;;;20.61;46.93;102042.81;5093618;28;20099;-80
2022/05/03 05:05:36;;;;;;;42.72;25.88;;;;;;;20.66;46.61;102044.53;5093529;28;20127;-77
2022/05/03 05:08:06;;;;;;;37.38;24.40;;;;;;;20.61;46.86;102042.81;5093563;28;20035;-80
2022/05/03 05:10:32;;;;;;;36.80;25.92;;;;;;;20.58;46.90;102040.72;5093564;28;20070;-76
2022/05/03 05:13:00;;;;;;;40.72;26.30;;;;;;;20.58;46.85;102042.72;5093320;28;20024;-76
2022/05/03 05:15:29;;;;;;;41.10;27.35;;;;;;;20.58;47.02;102039.94;5093363;28;20058;-77
2022/05/03 05:17:58;;;;;;;40.45;25.67;;;;;;;20.46;47.35;102043.50;5093276;28;20016;-77
2022/05/03 05:20:25;;;;;;;45.72;31.88;;;;;;;20.54;47.12;102042.56;5093107;28;20090;-75
2022/05/03 05:22:51;;;;;;;40.78;29.77;;;;;;;20.57;46.98;102044.66;5093284;28;20476;-75
2022/05/03 05:25:17;;;;;;;41.45;29.88;;;;;;;20.53;47.22;102045.72;5093205;28;20497;-77
2022/05/03 05:27:43;;;;;;;40.13;26.23;;;;;;;20.69;46.75;102044.63;5093209;28;20016;-75
2022/05/03 05:30:09;;;;;;;41.17;27.85;;;;;;;20.68;46.72;102048.56;5092909;28;20027;-75
2022/05/03 05:32:36;;;;;;;39.13;27.30;;;;;;;20.64;46.84;102044.91;5092996;28;20062;-75
2022/05/03 05:35:04;;;;;;;36.90;27.75;;;;;;;20.61;46.96;102037.25;5093044;28;20028;-77
2022/05/03 05:37:33;;;;;;;46.22;36.88;;;;;;;20.62;46.99;102044.41;5092585;28;20169;-78
2022/05/03 05:39:59;;;;;;;42.72;32.08;;;;;;;20.76;46.63;102046.81;5091848;28;20038;-79
2022/05/03 05:42:27;;;;;;;37.03;30.13;;;;;;;20.71;46.80;102053.44;5093021;28;20028;-77
2022/05/03 05:44:53;;;;;;;41.85;33.45;;;;;;;20.74;46.78;102046.38;5092930;28;20154;-75
2022/05/03 05:47:19;;;;;;;40.25;32.75;;;;;;;20.75;46.74;102047.97;5092219;28;20112;-76
2022/05/03 05:49:44;;;;;;;40.70;32.78;;;;;;;20.71;46.73;102052.63;5092910;28;20084;-77
2022/05/03 05:54:55;;;;;;;31.23;25.30;;;;;;;20.76;46.80;102055.16;5092693;28;20414;-79
2022/05/03 05:57:20;;;;;;;34.60;24.08;;;;;;;20.68;47.09;102062.47;5092765;28;20028;-76
2022/05/03 05:59:47;;;;;;;28.85;24.58;;;;;;;20.53;47.45;102052.06;5092758;28;20016;-76
2022/05/03 06:02:14;;;;;;;30.98;25.85;;;;;;;20.55;47.39;102057.28;5092689;28;20036;-76
2022/05/03 06:04:40;;;;;;;34.72;26.45;;;;;;;20.56;47.42;102054.16;5092604;28;20030;-75
2022/05/03 06:07:05;;;;;;;31.05;27.10;;;;;;;20.67;47.15;102065.59;5089597;28;20464;-77
2022/05/03 06:09:33;;;;;;;34.22;26.85;;;;;;;20.80;46.73;102060.84;5072082;28;20151;-76
2022/05/03 06:11:58;;;;;;;30.90;25.48;;;;;;;20.72;47.04;102070.91;5071950;28;20021;-78
2022/05/03 06:14:24;;;;;;;31.48;25.20;;;;;;;20.58;47.03;102064.91;5071982;28;20028;-77
2022/05/03 06:16:54;;;;;;;28.80;22.70;;;;;;;20.71;46.98;102058.19;5072376;28;20490;-76
2022/05/03 06:19:20;;;;;;;31.38;24.58;;;;;;;20.64;47.27;102057.97;5071966;28;20031;-77
2022/05/03 06:21:46;;;;;;;34.05;26.05;;;;;;;20.70;47.09;102057.34;5071922;28;20027;-77
2022/05/03 06:24:12;;;;;;;32.63;27.33;;;;;;;20.56;47.59;102056.13;5071919;28;20482;-78
2022/05/03 06:26:38;;;;;;;34.67;26.23;;;;;;;20.42;48.20;102060.03;5072190;28;20086;-79
2022/05/03 06:29:06;;;;;;;33.38;25.30;;;;;;;20.52;47.85;102049.66;5071946;28;20020;-77
2022/05/03 06:31:33;;;;;;;29.17;23.60;;;;;;;20.66;47.52;102062.00;5072227;28;20021;-77
2022/05/03 06:33:59;;;;;;;25.63;21.88;;;;;;;20.65;47.80;102056.81;5080780;28;20060;-75
2022/05/03 06:36:25;;;;;;;32.47;23.70;;;;;;;20.54;48.10;102058.44;5079694;28;20087;-77
2022/05/03 06:38:51;;;;;;;25.80;21.08;;;;;;;20.66;47.87;102061.19;5071855;28;20056;-77
2022/05/03 06:41:17;;;;;;;28.83;24.25;;;;;;;20.77;47.78;102059.53;5071675;28;20028;-76
2022/05/03 06:43:42;;;;;;;33.58;25.60;;;;;;;20.80;47.77;102060.84;5072126;28;20415;-75
2022/05/03 06:46:10;;;;;;;26.30;21.92;;;;;;;20.84;47.69;102059.75;5071889;28;20024;-79
2022/05/03 06:48:36;;;;;;;28.70;21.45;;;;;;;20.87;47.86;102055.50;5089352;28;20498;-76
2022/05/03 06:51:02;;;;;;;32.08;22.75;;;;;;;21.00;47.45;102051.50;5092180;28;20205;-77
2022/05/03 06:53:27;;;;;;;29.58;22.85;;;;;;;21.14;47.10;102053.88;5092321;28;20082;-75
2022/05/03 06:55:53;;;;;;;28.15;22.13;;;;;;;21.27;46.84;102049.91;5092179;28;20020;-76
2022/05/03 06:58:18;;;;;;;27.30;21.63;;;;;;;21.37;46.64;102046.63;5092671;28;20049;-79
2022/05/03 07:00:44;;;;;;;26.13;21.25;;;;;;;21.54;46.27;102051.88;5095836;28;20478;-76
2022/05/03 07:03:10;;;;;;;30.40;21.38;;;;;;;21.44;46.35;102049.59;5095917;28;20478;-76
2022/05/03 07:05:35;;;;;;;27.05;21.10;;;;;;;21.52;46.17;102045.84;5095564;28;20020;-80
2022/05/03 07:08:01;;;;;;;24.80;20.73;;;;;;;21.59;46.23;102045.25;5095550;28;20024;-80
2022/05/03 07:10:27;;;;;;;25.08;20.13;;;;;;;21.69;46.04;102043.91;5073276;28;20024;-77
2022/05/03 07:12:52;;;;;;;28.15;21.60;;;;;;;21.65;46.08;102046.59;5073789;28;20032;-77
2022/05/03 07:15:18;;;;;;;27.33;21.60;;;;;;;21.65;46.16;102043.00;5074018;28;20028;-77
2022/05/03 07:23:15;;;;;;;24.63;18.67;;;;;;;22.03;45.48;102045.97;5090397;28;20085;-78
2022/05/03 07:25:41;;;;;;;24.77;19.95;;;;;;;22.03;45.68;102043.19;5095415;28;20020;-80
2022/05/03 07:28:07;;;;;;;27.25;19.73;;;;;;;22.18;45.34;102038.03;5094425;28;20107;-80
2022/05/03 07:30:34;;;;;;;23.88;18.58;;;;;;;22.27;45.25;102044.19;5095014;28;20115;-78
2022/05/03 07:33:02;;;;;;;29.08;21.85;;;;;;;22.30;45.08;102035.94;5085560;28;20024;-79
2022/05/03 07:35:27;;;;;;;34.03;26.67;;;;;;;22.31;45.18;102033.97;5095557;28;20035;-78
2022/05/03 07:37:53;;;;;;;42.13;29.65;;;;;;;22.42;45.04;102023.88;5093746;28;20048;-79
2022/05/03 07:40:19;;;;;;;63.20;35.30;;;;;;;22.43;44.72;102029.06;5087449;28;20025;-80
2022/05/03 07:42:45;;;;;;;46.67;30.75;;;;;;;22.56;44.70;102028.97;5073450;28;20021;-79
2022/05/03 07:45:11;;;;;;;58.83;38.20;;;;;;;22.56;44.59;102029.75;5074662;28;20032;-79
2022/05/03 07:47:36;;;;;;;37.30;23.50;;;;;;;22.71;44.33;102031.69;5074785;28;20028;-79
2022/05/03 07:50:04;;;;;;;36.80;22.48;;;;;;;22.67;44.61;102036.41;5073397;28;20449;-79
2022/05/03 07:52:30;;;;;;;49.30;38.10;;;;;;;23.01;43.70;102035.94;5074283;28;20021;-78
2022/05/03 07:54:56;;;;;;;32.13;23.95;;;;;;;23.17;43.53;102037.44;5074354;28;20024;-79
2022/05/03 07:57:22;;;;;;;37.60;26.77;;;;;;;23.28;43.32;102034.09;5074487;28;20134;-80
2022/05/03 07:59:48;;;;;;;32.63;24.27;;;;;;;23.39;43.16;102035.09;5074155;28;20025;-79
2022/05/03 08:02:14;;;;;;;38.33;26.33;;;;;;;23.42;42.97;102032.34;5089495;28;20081;-79
2022/05/03 08:04:39;;;;;;;31.23;22.88;;;;;;;23.45;42.82;102026.06;5075814;28;20483;-80
2022/05/03 08:07:05;;;;;;;43.20;33.00;;;;;;;23.58;42.65;102028.66;5074187;28;20017;-79
2022/05/03 08:09:32;;;;;;;31.73;25.52;;;;;;;23.60;42.63;102034.69;5076487;28;20505;-81
2022/05/03 08:12:00;;;;;;;31.17;23.52;;;;;;;23.65;42.50;102035.19;5081132;28;20020;-79
2022/05/03 08:14:28;;;;;;;30.35;24.63;;;;;;;23.77;42.25;102031.44;5090602;28;20027;-80
2022/05/03 08:16:55;;;;;;;31.83;25.48;;;;;;;23.72;42.04;102037.31;5074131;28;20031;-79
2022/05/03 08:19:22;;;;;;;37.35;29.60;;;;;;;23.69;42.39;102038.88;5073671;28;20036;-80
2022/05/03 08:21:48;;;;;;;40.95;31.77;;;;;;;23.91;41.92;102036.44;5073575;28;20029;-78
2022/05/03 08:24:14;;;;;;;43.95;35.67;;;;;;;23.90;41.87;102046.81;5073511;28;20027;-78
2022/05/03 08:26:39;;;;;;;25.50;20.90;;;;;;;24.10;41.58;102041.94;5079495;28;20025;-77
2022/05/03 08:29:05;;;;;;;30.70;20.15;;;;;;;23.92;41.53;102043.63;5073550;28;20082;-79
2022/05/03 08:31:31;;;;;;;31.65;22.25;;;;;;;23.92;41.39;102038.88;5073515;28;20024;-80
2022/05/03 08:33:57;;;;;;;31.85;25.90;;;;;;;23.89;41.37;102041.59;5073408;28;20039;-78
2022/05/03 08:36:22;;;;;;;29.65;24.08;;;;;;;23.79;41.76;102046.59;5074711;28;20555;-79
2022/05/03 08:44:17;;;;;;;26.30;19.65;;;;;;;24.00;41.12;102045.38;5078080;28;20031;-79
2022/05/03 08:46:43;;;;;;;24.13;20.45;;;;;;;24.00;41.15;102040.59;5079893;28;20414;-79
2022/05/03 08:49:13;;;;;;;24.27;19.63;;;;;;;24.04;41.20;102033.09;5058142;28;20429;-79
2022/05/03 08:51:42;;;;;;;23.75;20.60;;;;;;;24.03;41.21;102039.03;5055499;28;20070;-80
2022/05/03 08:54:08;;;;;;;26.85;21.92;;;;;;;24.25;41.11;102032.59;5055684;28;20036;-80
2022/05/03 08:56:34;;;;;;;24.38;19.83;;;;;;;24.56;40.44;102033.47;5058309;28;20051;-79
2022/05/03 08:59:00;;;;;;;19.42;17.13;;;;;;;24.56;40.82;102041.88;5056459;28;20029;-79
2022/05/03 09:01:26;;;;;;;16.30;14.55;;;;;;;24.63;40.98;102039.97;5056363;28;20024;-79
2022/05/03 09:03:52;;;;;;;17.55;14.82;;;;;;;24.66;40.79;102043.22;5058511;28;20470;-79
2022/05/03 09:06:18;;;;;;;17.38;15.20;;;;;;;24.79;40.46;102041.81;5057475;28;20068;-79
2022/05/03 09:08:52;;;;;;;17.98;16.10;;;;;;;24.92;39.95;102043.16;5057108;28;20032;-79
2022/05/03 09:11:19;;;;;;;24.08;20.17;;;;;;;25.13;39.46;102037.06;5056072;28;20620;-78
2022/05/03 09:13:46;;;;;;;35.97;28.52;;;;;;;25.16;39.81;102048.31;5055367;28;20040;-79
2022/05/03 09:16:14;;;;;;;30.05;25.15;;;;;;;25.28;39.36;102044.41;5065365;28;20454;-79
2022/05/03 09:18:41;;;;;;;29.65;19.48;;;;;;;25.22;39.66;102045.94;5061726;28;20118;-79
2022/05/03 09:24:07;;;;;;;24.05;20.38;;;;;;;25.43;39.16;102049.00;5024709;28;20068;-79
2022/05/03 09:26:33;;;;;;;25.02;19.88;;;;;;;25.37;39.47;102041.31;5088699;28;20032;-77
2022/05/03 09:29:03;;;;;;;23.92;20.98;;;;;;;25.33;38.86;102049.69;5093318;28;20028;-79
2022/05/03 09:31:41;;;;;;;22.90;19.52;;;;;;;25.35;39.04;102052.91;5065175;28;20487;-78
2022/05/03 09:34:26;;;;;;;25.50;19.98;;;;;;;25.25;39.26;102058.38;5072904;28;20036;-79
2022/05/03 09:36:54;;;;;;;26.83;19.63;;;;;;;25.26;39.01;102046.81;5084011;28;20563;-77
2022/05/03 09:39:24;;;;;;;25.27;19.05;;;;;;;25.21;38.83;102049.13;5093080;28;20107;-79
2022/05/03 09:42:09;;;;;;;31.95;19.45;;;;;;;25.13;39.24;102049.03;5091769;28;20101;-77
2022/05/03 09:44:54;;;;;;;22.63;18.08;;;;;;;25.19;39.36;102049.53;5074465;28;20118;-77
2022/05/03 09:47:25;;;;;;;20.88;17.75;;;;;;;25.41;38.46;102045.78;5092930;28;20359;-78
2022/05/03 09:49:52;;;;;;;19.13;16.55;;;;;;;25.55;38.82;102045.13;5092942;28;20107;-77
2022/05/03 09:52:29;;;;;;;20.50;18.30;;;;;;;25.61;38.74;102048.34;5092815;28;20107;-77
2022/05/03 09:54:59;;;;;;;23.15;17.23;;;;;;;25.77;38.77;102046.16;5092767;28;20040;-79
2022/05/03 09:57:27;;;;;;;20.23;17.75;;;;;;;26.05;38.14;102045.59;5092829;28;20024;-79
2022/05/03 09:59:57;;;;;;;24.25;18.75;;;;;;;26.22;38.08;102052.50;5092746;28;20485;-79
2022/05/03 10:02:26;;;;;;;20.35;17.60;;;;;;;26.36;37.72;102035.81;5070888;28;20025;-79
2022/05/03 10:04:59;;;;;;;21.60;19.13;;;;;;;26.42;37.38;102042.69;5072518;28;20036;-79
2022/05/03 10:07:26;;;;;;;22.30;18.15;;;;;;;26.37;37.41;102036.59;5088052;28;20021;-79
2022/05/03 10:09:52;;;;;;;20.75;18.55;;;;;;;26.24;37.81;102039.75;5091387;28;20386;-77
2022/05/03 10:12:18;;;;;;;23.27;18.55;;;;;;;26.29;37.31;102039.34;5092514;28;20105;-78
2022/05/03 10:14:46;;;;;;;20.73;17.60;;;;;;;26.21;37.47;102037.69;5091293;28;20419;-78
2022/05/03 10:23:17;;;;;;;22.52;19.33;;;;;;;26.08;37.27;102035.63;5092789;28;20032;-79
2022/05/03 10:25:42;;;;;;;20.08;16.88;;;;;;;26.09;37.61;102032.44;5092584;28;20435;-77
2022/05/03 10:28:08;;;;;;;21.95;17.77;;;;;;;25.98;37.77;102026.72;5092628;28;20055;-77
2022/05/03 10:30:38;;;;;;;26.23;19.38;;;;;;;25.88;37.78;102035.84;5092542;28;20030;-77
2022/05/03 10:33:19;;;;;;;;;;;;;;;25.78;37.79;102025.38;5092867;28;20031;-77
2022/05/03 10:35:46;;;;;;;23.15;19.00;;;;;;;25.89;37.91;102025.47;5096295;28;19916;-77
2022/05/03 10:38:12;;;;;;;23.08;16.48;;;;;;;25.95;37.80;102026.72;5096389;28;20125;-79
2022/05/03 10:40:43;;;;;;;17.15;14.57;;;;;;;25.95;37.90;102026.72;5096425;28;20031;-79
2022/05/03 10:43:09;;;;;;;31.92;25.50;;;;;;;25.94;38.07;102023.09;5096344;28;20024;-79
2022/05/03 10:46:11;;;;;;;41.30;31.90;;;;;;;25.97;37.23;102032.72;5096056;28;20031;-78
2022/05/03 10:48:37;;;;;;;25.48;20.02;;;;;;;25.98;37.75;102023.94;5096251;28;20027;-80
2022/05/03 10:51:04;;;;;;;19.02;16.45;;;;;;;25.99;37.71;102019.13;5096117;28;20064;-79
2022/05/03 10:53:35;;;;;;;23.13;19.15;;;;;;;25.64;37.71;102030.81;5079585;28;20035;-78
2022/05/03 10:56:12;;;;;;;22.27;16.00;;;;;;;25.56;37.53;102029.13;5075797;28;20067;-79
2022/05/03 10:58:41;;;;;;;18.70;14.27;;;;;;;25.47;37.48;102029.44;5075737;28;20028;-77
2022/05/03 11:01:20;;;;;;;28.13;17.88;;;;;;;25.60;37.50;102025.16;5087330;28;20363;-79
2022/05/03 11:03:52;;;;;;;20.45;16.95;;;;;;;25.43;37.47;102025.81;5095967;28;20060;-79
2022/05/03 11:06:22;;;;;;;19.52;15.30;;;;;;;25.32;37.62;102019.31;5095709;28;20069;-79
2022/05/03 11:11:41;;;;;;;22.13;17.13;;;;;;;25.35;37.68;102005.34;5090496;28;20032;-79
2022/05/03 11:14:20;;;;;;;22.23;17.50;;;;;;;25.29;38.43;102012.47;5059512;28;20024;-79
2022/05/03 11:16:52;;;;;;;25.17;18.10;;;;;;;25.53;37.94;102008.31;5058894;28;20035;-79
2022/05/03 11:19:22;;;;;;;25.67;17.52;;;;;;;25.44;38.25;102005.81;5059569;28;20028;-79
2022/05/03 11:21:50;;;;;;;23.60;17.67;;;;;;;25.53;38.20;102010.28;5059385;28;20071;-80
2022/05/03 11:24:24;;;;;;;16.90;14.20;;;;;;;25.59;38.05;102011.56;5058694;28;20657;-80
2022/05/03 11:27:01;;;;;;;20.02;16.00;;;;;;;25.75;38.11;101998.13;5064153;28;20036;-79
2022/05/03 11:29:29;;;;;;;31.80;20.83;;;;;;;25.68;38.24;101992.44;5056586;28;20017;-79
2022/05/03 11:31:55;;;;;;;28.20;21.27;;;;;;;25.79;37.86;101999.00;5058719;28;20020;-79
2022/05/03 11:34:21;;;;;;;23.05;19.45;;;;;;;26.02;37.13;101997.97;5058914;28;20028;-79
2022/05/03 11:36:50;;;;;;;28.05;22.02;;;;;;;26.06;37.19;101996.78;5058189;28;20047;-79
2022/05/03 11:39:16;;;;;;;28.20;21.80;;;;;;;26.05;37.12;101997.97;5066947;28;20024;-79
2022/05/03 11:41:42;;;;;;;24.70;20.40;;;;;;;25.92;37.43;101999.47;5058445;28;20024;-79
2022/05/03 11:44:09;;;;;;;24.23;19.88;;;;;;;26.01;37.62;101994.38;5057039;28;20025;-79
2022/05/03 11:46:37;;;;;;;28.25;22.30;;;;;;;25.90;37.60;102002.66;5062261;28;20028;-78
2022/05/03 11:49:06;;;;;;;36.58;22.92;;;;;;;25.98;37.54;101990.31;5059509;28;20105;-79
2022/05/03 11:57:10;;;;;;;25.33;18.75;;;;;;;25.82;36.98;101995.41;5057251;28;20596;-79
2022/05/03 11:59:38;;;;;;;24.00;18.02;;;;;;;25.73;37.20;101989.34;5057985;28;20016;-79
2022/05/03 12:02:14;;;;;;;20.65;15.57;;;;;;;25.78;37.11;101988.19;5056806;28;20058;-79